createdAt,value
2022-08-27T00:02:25.701Z,3.70
2022-08-27T00:04:54.180Z,3.97
2022-08-27T00:07:24.014Z,3.08
2022-08-27T00:09:52.410Z,2.85
2022-08-27T00:12:20.907Z,3.08
2022-08-27T00:14:49.508Z,3.10
2022-08-27T00:17:18.161Z,2.72
2022-08-27T00:19:46.545Z,2.80
2022-08-27T00:22:14.990Z,2.63
2022-08-27T00:24:48.628Z,3.70
2022-08-27T00:27:18.135Z,3.42
2022-08-27T00:29:47.212Z,2.47
2022-08-27T00:32:15.799Z,2.83
2022-08-27T00:34:44.355Z,2.63
2022-08-27T00:37:12.852Z,2.80
2022-08-27T00:39:41.538Z,2.80
2022-08-27T00:42:11.633Z,3.38
2022-08-27T00:44:40.211Z,2.78
2022-08-27T00:47:13.928Z,2.40
2022-08-27T00:49:48.063Z,2.80
2022-08-27T00:52:25.204Z,3.20
2022-08-27T00:55:00.000Z,2.72
2022-08-27T00:57:31.079Z,2.83
2022-08-27T00:59:59.506Z,3.17
2022-08-27T01:02:30.783Z,3.30
2022-08-27T01:05:05.026Z,2.75
2022-08-27T01:07:37.207Z,3.70
2022-08-27T01:10:09.763Z,2.80
2022-08-27T01:12:40.588Z,2.75
2022-08-27T01:15:16.959Z,2.45
2022-08-27T01:17:49.942Z,3.75
2022-08-27T01:20:23.488Z,3.58
2022-08-27T01:23:04.370Z,2.53
2022-08-27T01:25:34.634Z,2.83
2022-08-27T01:28:05.992Z,2.70
2022-08-27T01:30:35.145Z,3.10
2022-08-27T01:33:11.942Z,3.28
2022-08-27T01:35:40.620Z,2.95
2022-08-27T01:38:12.037Z,2.47
2022-08-27T01:41:01.155Z,2.42
2022-08-27T01:43:31.404Z,2.88
2022-08-27T01:46:00.790Z,2.47
2022-08-27T01:48:29.211Z,3.35
2022-08-27T01:50:57.855Z,2.88
2022-08-27T01:53:28.146Z,3.08
2022-08-27T01:55:59.980Z,2.45
2022-08-27T01:58:31.448Z,2.90
2022-08-27T02:01:07.204Z,2.97
2022-08-27T02:03:37.354Z,3.15
2022-08-27T02:06:09.383Z,2.72
2022-08-27T02:08:38.456Z,2.88
2022-08-27T02:11:10.130Z,3.78
2022-08-27T02:13:39.307Z,2.83
2022-08-27T02:16:07.916Z,3.10
2022-08-27T02:18:38.585Z,3.15
2022-08-27T02:21:10.551Z,2.63
2022-08-27T02:23:39.783Z,3.30
2022-08-27T02:26:09.997Z,2.97
2022-08-27T02:28:38.615Z,2.63
2022-08-27T02:31:07.575Z,3.10
2022-08-27T02:33:36.080Z,3.20
2022-08-27T02:36:06.232Z,2.67
2022-08-27T02:38:34.800Z,2.85
2022-08-27T02:41:03.579Z,2.15
2022-08-27T02:43:33.551Z,3.00
2022-08-27T02:46:04.278Z,3.13
2022-08-27T02:48:32.773Z,2.95
2022-08-27T02:51:01.283Z,2.88
2022-08-27T02:53:29.783Z,3.45
2022-08-27T02:55:58.217Z,3.53
2022-08-27T02:58:26.792Z,2.80
2022-08-27T03:00:56.991Z,3.65
2022-08-27T03:03:25.464Z,2.38
2022-08-27T03:05:53.856Z,1.98
2022-08-27T03:08:23.750Z,2.83
2022-08-27T03:10:52.943Z,2.83
2022-08-27T03:13:22.643Z,2.35
2022-08-27T03:15:51.100Z,2.80
2022-08-27T03:18:21.682Z,2.33
2022-08-27T03:20:52.712Z,2.35
2022-08-27T03:23:24.842Z,2.95
2022-08-27T03:25:55.999Z,3.75
2022-08-27T03:28:28.397Z,2.38
2022-08-27T03:31:01.381Z,2.75
2022-08-27T03:33:34.176Z,3.67
2022-08-27T03:36:03.072Z,3.15
2022-08-27T03:38:31.527Z,2.67
2022-08-27T03:41:00.060Z,2.45
2022-08-27T03:43:29.020Z,2.88
2022-08-27T03:46:01.840Z,2.58
2022-08-27T03:48:32.944Z,2.85
2022-08-27T03:51:06.685Z,2.50
2022-08-27T03:53:35.804Z,2.45
2022-08-27T03:56:06.434Z,2.72
2022-08-27T03:58:35.600Z,2.72
2022-08-27T04:01:05.126Z,2.58
2022-08-27T04:03:35.814Z,2.72
2022-08-27T04:06:04.810Z,2.60
2022-08-27T04:08:33.230Z,2.53
2022-08-27T04:11:01.808Z,3.22
2022-08-27T04:13:30.194Z,2.33
2022-08-27T04:15:58.714Z,2.55
2022-08-27T04:18:27.250Z,2.38
2022-08-27T04:20:57.522Z,2.90
2022-08-27T04:23:25.961Z,2.67
2022-08-27T04:25:54.367Z,2.83
2022-08-27T04:28:22.790Z,2.38
2022-08-27T04:30:51.214Z,3.00
2022-08-27T04:33:19.920Z,2.20
2022-08-27T04:35:48.396Z,2.58
2022-08-27T04:38:18.587Z,3.15
2022-08-27T04:41:04.590Z,2.88
2022-08-27T04:43:33.078Z,2.80
2022-08-27T04:46:01.906Z,2.90
2022-08-27T04:48:30.326Z,2.92
2022-08-27T04:50:58.821Z,2.75
2022-08-27T04:53:28.824Z,3.00
2022-08-27T04:55:58.666Z,2.97
2022-08-27T04:58:27.541Z,3.22
2022-08-27T05:01:01.654Z,3.60
2022-08-27T05:03:30.560Z,3.05
2022-08-27T05:06:04.052Z,2.28
2022-08-27T05:08:34.880Z,2.78
2022-08-27T05:11:03.662Z,2.30
2022-08-27T05:13:33.307Z,2.38
2022-08-27T05:16:06.073Z,2.38
2022-08-27T05:18:42.087Z,2.53
2022-08-27T05:21:20.114Z,3.05
2022-08-27T05:23:50.980Z,3.15
2022-08-27T05:26:19.855Z,2.78
2022-08-27T05:28:48.287Z,3.25
2022-08-27T05:31:18.572Z,2.30
2022-08-27T05:33:48.189Z,2.85
2022-08-27T05:36:19.854Z,3.45
2022-08-27T05:38:50.526Z,2.33
2022-08-27T05:41:21.659Z,2.55
2022-08-27T05:43:50.792Z,2.78
2022-08-27T05:46:23.483Z,2.92
2022-08-27T05:48:58.185Z,3.03
2022-08-27T05:51:29.485Z,2.72
2022-08-27T05:54:06.780Z,2.97
2022-08-27T05:56:39.323Z,2.50
2022-08-27T05:59:25.343Z,3.17
2022-08-27T06:01:57.369Z,2.72
2022-08-27T06:04:27.270Z,2.53
2022-08-27T06:06:55.677Z,2.80
2022-08-27T06:09:29.043Z,2.78
2022-08-27T06:11:59.778Z,3.22
2022-08-27T06:14:28.650Z,2.85
2022-08-27T06:16:58.721Z,2.70
2022-08-27T06:19:27.199Z,3.03
2022-08-27T06:22:00.213Z,3.10
2022-08-27T06:24:31.415Z,3.15
2022-08-27T06:27:00.103Z,2.80
2022-08-27T06:29:28.645Z,2.60
2022-08-27T06:31:57.093Z,3.42
2022-08-27T06:34:25.690Z,3.03
2022-08-27T06:36:54.537Z,3.22
2022-08-27T06:39:22.992Z,3.13
2022-08-27T06:41:53.111Z,3.03
2022-08-27T06:44:22.380Z,3.53
2022-08-27T06:46:51.667Z,3.00
2022-08-27T06:49:20.405Z,3.85
2022-08-27T06:51:49.476Z,2.55
2022-08-27T06:54:20.190Z,3.30
2022-08-27T06:56:49.644Z,3.80
2022-08-27T06:59:20.841Z,3.35
2022-08-27T07:01:52.740Z,2.30
2022-08-27T07:04:31.938Z,3.47
2022-08-27T07:07:01.952Z,3.20
2022-08-27T07:09:32.178Z,3.38
2022-08-27T07:12:01.663Z,3.10
2022-08-27T07:14:37.809Z,3.45
2022-08-27T07:17:10.996Z,3.70
2022-08-27T07:19:44.831Z,3.13
2022-08-27T07:22:13.997Z,2.10
2022-08-27T07:24:42.454Z,2.67
2022-08-27T07:27:11.472Z,3.30
2022-08-27T07:29:41.587Z,2.53
2022-08-27T07:32:10.070Z,2.92
2022-08-27T07:34:38.502Z,3.47
2022-08-27T07:37:07.007Z,3.42
2022-08-27T07:39:35.431Z,2.53
2022-08-27T07:42:21.366Z,2.28
2022-08-27T07:44:51.201Z,3.00
2022-08-27T07:47:19.881Z,2.70
2022-08-27T07:49:48.648Z,2.17
2022-08-27T07:52:17.600Z,2.90
2022-08-27T07:54:46.047Z,2.70
2022-08-27T07:57:14.457Z,2.97
2022-08-27T07:59:42.917Z,4.05
2022-08-27T08:02:13.592Z,3.67
2022-08-27T08:04:42.125Z,3.08
2022-08-27T08:07:10.613Z,3.55
2022-08-27T08:09:39.397Z,2.40
2022-08-27T08:12:08.406Z,3.10
2022-08-27T08:14:37.498Z,3.05
2022-08-27T08:17:10.468Z,3.25
2022-08-27T08:19:41.476Z,3.85
2022-08-27T08:22:10.111Z,3.30
2022-08-27T08:24:38.543Z,3.05
2022-08-27T08:27:08.021Z,3.65
2022-08-27T08:29:37.854Z,3.58
2022-08-27T08:32:08.227Z,3.80
2022-08-27T08:34:37.463Z,2.83
2022-08-27T08:37:08.252Z,3.55
2022-08-27T08:39:38.651Z,3.90
2022-08-27T08:42:11.791Z,3.83
2022-08-27T08:44:48.619Z,3.75
2022-08-27T08:47:23.497Z,3.47
2022-08-27T08:49:58.412Z,3.20
2022-08-27T08:52:41.595Z,3.65
2022-08-27T08:55:25.034Z,2.75
2022-08-27T08:58:04.245Z,3.70
2022-08-27T09:00:32.826Z,3.10
2022-08-27T09:03:01.286Z,4.28
2022-08-27T09:05:31.147Z,3.78
2022-08-27T09:08:32.336Z,3.70
2022-08-27T09:11:10.815Z,3.17
2022-08-27T09:13:45.023Z,3.03
2022-08-27T09:16:13.534Z,3.65
2022-08-27T09:18:45.469Z,3.70
2022-08-27T09:21:28.302Z,3.28
2022-08-27T09:24:15.813Z,3.50
2022-08-27T09:26:46.006Z,3.53
2022-08-27T09:29:20.120Z,4.20
2022-08-27T09:31:56.300Z,3.47
2022-08-27T09:34:26.085Z,3.53
2022-08-27T09:37:05.698Z,2.78
2022-08-27T09:39:45.471Z,3.20
2022-08-27T09:42:32.014Z,3.55
2022-08-27T09:45:01.046Z,3.90
2022-08-27T09:47:29.857Z,3.88
2022-08-27T09:50:09.953Z,4.03
2022-08-27T09:52:55.369Z,4.13
2022-08-27T09:55:44.717Z,3.80
2022-08-27T09:58:21.565Z,3.97
2022-08-27T10:00:59.257Z,4.30
2022-08-27T10:03:32.720Z,4.38
2022-08-27T10:06:02.047Z,3.92
2022-08-27T10:08:42.777Z,3.72
2022-08-27T10:11:19.666Z,4.07
2022-08-27T10:13:58.361Z,3.95
2022-08-27T10:17:05.725Z,3.95
2022-08-27T10:19:55.029Z,4.10
2022-08-27T10:22:41.370Z,4.35
2022-08-27T10:25:24.765Z,3.78
2022-08-27T10:28:05.302Z,4.07
2022-08-27T10:30:56.048Z,3.90
2022-08-27T10:33:38.470Z,3.83
2022-08-27T10:36:19.875Z,3.33
2022-08-27T10:38:57.539Z,3.63
2022-08-27T10:41:34.816Z,4.25
2022-08-27T10:44:44.634Z,4.00
2022-08-27T10:47:31.743Z,4.18
2022-08-27T10:50:08.570Z,4.63
2022-08-27T10:52:44.177Z,3.35
2022-08-27T10:55:21.043Z,4.22
2022-08-27T10:58:23.186Z,3.88
2022-08-27T11:01:04.402Z,3.60
2022-08-27T11:03:41.317Z,4.20
2022-08-27T11:06:31.769Z,4.15
2022-08-27T11:09:08.070Z,3.53
2022-08-27T11:14:37.643Z,3.47
2022-08-27T11:17:14.078Z,3.90
2022-08-27T11:19:54.393Z,4.30
2022-08-27T11:22:31.398Z,4.00
2022-08-27T11:25:10.691Z,3.85
2022-08-27T11:27:40.586Z,3.42
2022-08-27T11:30:30.038Z,3.55
2022-08-27T11:33:14.329Z,4.13
2022-08-27T11:36:25.323Z,3.40
2022-08-27T11:39:03.246Z,4.05
2022-08-27T11:42:09.811Z,4.25
2022-08-27T11:44:44.024Z,4.20
2022-08-27T11:47:20.542Z,3.72
2022-08-27T11:49:54.587Z,3.72
2022-08-27T11:52:27.245Z,4.00
2022-08-27T11:55:14.286Z,4.22
2022-08-27T11:57:42.985Z,3.42
2022-08-27T12:00:34.707Z,3.25
2022-08-27T12:03:09.213Z,3.15
2022-08-27T12:05:44.653Z,3.60
2022-08-27T12:08:30.802Z,3.08
2022-08-27T12:11:27.238Z,3.40
2022-08-27T12:14:08.674Z,3.20
2022-08-27T12:16:46.521Z,2.95
2022-08-27T12:19:43.135Z,3.60
2022-08-27T12:22:59.415Z,3.28
2022-08-27T12:25:28.610Z,3.67
2022-08-27T12:27:59.606Z,3.40
2022-08-27T12:30:34.741Z,3.65
2022-08-27T12:33:16.350Z,4.28
2022-08-27T12:35:50.152Z,3.65
2022-08-27T12:38:27.127Z,3.88
2022-08-27T12:41:03.738Z,3.10
2022-08-27T12:43:34.000Z,3.25
2022-08-27T12:46:08.008Z,3.90
2022-08-27T12:48:44.915Z,3.80
2022-08-27T12:51:26.286Z,3.33
2022-08-27T12:54:03.819Z,4.68
2022-08-27T12:56:59.788Z,3.63
2022-08-27T13:00:07.555Z,3.60
2022-08-27T13:03:20.984Z,4.00
2022-08-27T13:05:57.006Z,3.80
2022-08-27T13:08:30.760Z,3.50
2022-08-27T13:11:12.625Z,3.65
2022-08-27T13:13:43.038Z,3.65
2022-08-27T13:16:12.049Z,3.88
2022-08-27T13:18:41.034Z,3.92
2022-08-27T13:21:25.462Z,3.65
2022-08-27T13:23:58.343Z,4.38
2022-08-27T13:26:31.677Z,3.88
2022-08-27T13:29:03.525Z,3.58
2022-08-27T13:31:34.420Z,3.53
2022-08-27T13:34:06.641Z,3.47
2022-08-27T13:36:54.387Z,2.97
2022-08-27T13:39:23.214Z,3.97
2022-08-27T13:41:53.326Z,3.55
2022-08-27T13:44:26.602Z,3.60
2022-08-27T13:47:01.345Z,3.70
2022-08-27T13:49:33.087Z,6.85
2022-08-27T13:52:17.389Z,4.82
2022-08-27T13:54:47.114Z,4.18
2022-08-27T13:57:26.603Z,3.63
2022-08-27T13:59:55.144Z,3.85
2022-08-27T14:02:29.622Z,3.85
2022-08-27T14:05:15.503Z,3.70
2022-08-27T14:07:48.767Z,4.25
2022-08-27T14:10:34.162Z,3.28
2022-08-27T14:13:07.551Z,3.08
2022-08-27T14:15:39.475Z,4.20
2022-08-27T14:18:32.144Z,3.63
2022-08-27T14:21:10.026Z,3.42
2022-08-27T14:23:38.483Z,4.22
2022-08-27T14:26:07.180Z,3.40
2022-08-27T14:28:37.117Z,4.45
2022-08-27T14:31:05.757Z,4.75
2022-08-27T14:33:34.221Z,3.83
2022-08-27T14:36:02.884Z,3.80
2022-08-27T14:38:33.697Z,3.78
2022-08-27T14:41:02.392Z,5.07
2022-08-27T14:43:36.887Z,4.55
2022-08-27T14:46:08.338Z,3.85
2022-08-27T14:48:37.845Z,3.28
2022-08-27T14:51:14.442Z,3.97
2022-08-27T14:53:42.847Z,3.40
2022-08-27T14:56:11.356Z,3.78
2022-08-27T14:58:41.343Z,3.88
2022-08-27T15:01:10.262Z,4.50
2022-08-27T15:03:44.715Z,4.45
2022-08-27T15:06:13.175Z,3.95
2022-08-27T15:08:44.747Z,3.97
2022-08-27T15:11:19.332Z,4.25
2022-08-27T15:13:49.860Z,3.38
2022-08-27T15:16:28.005Z,3.80
2022-08-27T15:19:00.611Z,3.15
2022-08-27T15:21:30.596Z,4.28
2022-08-27T15:24:02.764Z,4.35
2022-08-27T15:26:32.055Z,4.80
2022-08-27T15:29:06.329Z,4.45
2022-08-27T15:31:35.970Z,3.95
2022-08-27T15:34:04.555Z,3.22
2022-08-27T15:36:33.055Z,3.85
2022-08-27T15:39:01.566Z,3.42
2022-08-27T15:41:30.765Z,4.05
2022-08-27T15:44:01.632Z,3.80
2022-08-27T15:46:30.169Z,3.40
2022-08-27T15:48:59.055Z,4.03
2022-08-27T15:51:31.443Z,4.57
2022-08-27T15:54:01.491Z,4.28
2022-08-27T15:56:34.337Z,5.65
2022-08-27T15:59:04.431Z,4.13
2022-08-27T16:01:36.431Z,3.72
2022-08-27T16:04:06.246Z,3.92
2022-08-27T16:06:35.068Z,4.15
2022-08-27T16:09:04.459Z,3.80
2022-08-27T16:11:32.981Z,4.40
2022-08-27T16:14:01.491Z,3.63
2022-08-27T16:16:33.776Z,4.47
2022-08-27T16:19:04.648Z,4.72
2022-08-27T16:21:34.913Z,3.95
2022-08-27T16:24:03.630Z,4.10
2022-08-27T16:26:32.118Z,4.07
2022-08-27T16:29:01.349Z,4.95
2022-08-27T16:31:32.777Z,3.78
2022-08-27T16:34:02.265Z,5.45
2022-08-27T16:36:31.587Z,4.93
2022-08-27T16:39:00.011Z,4.47
2022-08-27T16:41:29.206Z,4.50
2022-08-27T16:43:58.950Z,4.15
2022-08-27T16:46:27.521Z,4.00
2022-08-27T16:49:16.479Z,4.28
2022-08-27T16:51:45.370Z,4.55
2022-08-27T16:54:16.692Z,4.35
2022-08-27T16:56:46.384Z,3.92
2022-08-27T16:59:15.897Z,3.15
2022-08-27T17:01:47.143Z,4.20
2022-08-27T17:04:28.227Z,4.32
2022-08-27T17:06:58.303Z,3.88
2022-08-27T17:09:27.232Z,5.50
2022-08-27T17:12:01.360Z,5.07
2022-08-27T17:14:31.915Z,4.60
2022-08-27T17:17:00.368Z,4.45
2022-08-27T17:19:30.199Z,4.07
2022-08-27T17:21:58.620Z,5.38
2022-08-27T17:24:26.995Z,4.75
2022-08-27T17:26:55.472Z,3.58
2022-08-27T17:29:23.854Z,4.43
2022-08-27T17:31:52.721Z,4.97
2022-08-27T17:34:26.313Z,4.93
2022-08-27T17:36:56.338Z,3.95
2022-08-27T17:39:24.769Z,4.35
2022-08-27T17:41:54.675Z,4.18
2022-08-27T17:44:27.924Z,3.72
2022-08-27T17:47:00.242Z,3.78
2022-08-27T17:49:31.095Z,2.95
2022-08-27T17:52:04.268Z,3.42
2022-08-27T17:54:36.891Z,3.40
2022-08-27T17:57:18.631Z,3.70
2022-08-27T17:59:47.839Z,3.67
2022-08-27T18:02:22.030Z,3.67
2022-08-27T18:04:50.865Z,4.10
2022-08-27T18:07:20.794Z,4.25
2022-08-27T18:09:49.890Z,4.93
2022-08-27T18:12:23.896Z,3.88
2022-08-27T18:15:04.114Z,4.45
2022-08-27T18:17:33.064Z,5.30
2022-08-27T18:20:01.642Z,4.95
2022-08-27T18:22:35.013Z,3.47
2022-08-27T18:25:10.853Z,3.42
2022-08-27T18:27:41.386Z,2.92
2022-08-27T18:30:12.408Z,3.22
2022-08-27T18:32:41.168Z,3.50
2022-08-27T18:35:16.427Z,4.60
2022-08-27T18:37:46.417Z,3.67
2022-08-27T18:40:18.086Z,4.40
2022-08-27T18:42:47.324Z,4.90
2022-08-27T18:45:19.478Z,3.83
2022-08-27T18:47:47.884Z,4.80
2022-08-27T18:50:20.401Z,4.72
2022-08-27T18:52:53.310Z,3.97
2022-08-27T18:55:25.490Z,4.32
2022-08-27T18:57:54.061Z,4.45
2022-08-27T19:00:24.942Z,3.90
2022-08-27T19:02:54.407Z,4.80
2022-08-27T19:05:27.352Z,3.65
2022-08-27T19:07:59.098Z,3.55
2022-08-27T19:10:28.043Z,4.80
2022-08-27T19:12:56.484Z,4.75
2022-08-27T19:15:25.016Z,3.80
2022-08-27T19:17:57.900Z,5.18
2022-08-27T19:20:27.574Z,5.13
2022-08-27T19:22:58.886Z,3.83
2022-08-27T19:25:29.192Z,5.13
2022-08-27T19:27:57.899Z,4.82
2022-08-27T19:30:26.480Z,4.90
2022-08-27T19:32:57.169Z,3.85
2022-08-27T19:35:26.443Z,4.88
2022-08-27T19:37:56.414Z,3.72
2022-08-27T19:40:26.111Z,4.72
2022-08-27T19:42:54.831Z,4.63
2022-08-27T19:45:24.397Z,4.82
2022-08-27T19:47:53.777Z,4.70
2022-08-27T19:50:23.868Z,5.13
2022-08-27T19:52:53.122Z,4.68
2022-08-27T19:55:23.141Z,4.13
2022-08-27T19:57:51.587Z,4.25
2022-08-27T20:00:23.307Z,5.20
2022-08-27T20:02:51.789Z,4.60
2022-08-27T20:05:21.691Z,4.25
2022-08-27T20:07:51.917Z,4.80
2022-08-27T20:10:25.809Z,5.18
2022-08-27T20:13:05.524Z,4.40
2022-08-27T20:15:34.531Z,4.40
2022-08-27T20:18:03.388Z,4.75
2022-08-27T20:20:32.959Z,3.88
2022-08-27T20:23:02.877Z,3.60
2022-08-27T20:25:34.611Z,2.70
2022-08-27T20:28:21.856Z,2.85
2022-08-27T20:30:50.615Z,2.53
2022-08-27T20:33:19.087Z,3.45
2022-08-27T20:35:47.531Z,2.92
2022-08-27T20:38:16.052Z,3.53
2022-08-27T20:40:45.861Z,2.60
2022-08-27T20:43:14.662Z,2.95
2022-08-27T20:45:43.714Z,3.75
2022-08-27T20:48:12.942Z,2.63
2022-08-27T20:50:41.780Z,2.08
2022-08-27T20:53:10.438Z,1.90
2022-08-27T20:55:38.976Z,1.75
2022-08-27T20:58:26.031Z,2.13
2022-08-27T21:00:56.105Z,2.20
2022-08-27T21:03:24.989Z,2.22
2022-08-27T21:05:53.536Z,2.28
2022-08-27T21:08:22.334Z,2.47
2022-08-27T21:10:53.920Z,2.10
2022-08-27T21:13:24.991Z,2.63
2022-08-27T21:15:54.442Z,2.30
2022-08-27T21:18:29.582Z,2.50
2022-08-27T21:20:58.934Z,2.38
2022-08-27T21:23:29.047Z,3.10
2022-08-27T21:26:01.319Z,2.28
2022-08-27T21:28:31.928Z,2.90
2022-08-27T21:31:00.533Z,2.53
2022-08-27T21:33:29.058Z,2.72
2022-08-27T21:35:57.561Z,3.08
2022-08-27T21:38:26.629Z,2.40
2022-08-27T21:40:55.858Z,2.45
2022-08-27T21:43:24.790Z,2.13
2022-08-27T21:45:59.020Z,2.42
2022-08-27T21:48:28.123Z,1.73
2022-08-27T21:50:56.574Z,2.92
2022-08-27T21:53:25.586Z,2.13
2022-08-27T21:55:54.813Z,2.20
2022-08-27T21:58:26.423Z,1.55
2022-08-27T22:00:56.977Z,2.00
2022-08-27T22:03:26.630Z,1.88
2022-08-27T22:05:55.144Z,1.63
2022-08-27T22:08:24.583Z,1.63
2022-08-27T22:10:55.908Z,1.92
2022-08-27T22:13:25.503Z,2.70
2022-08-27T22:15:53.985Z,2.35
2022-08-27T22:18:24.047Z,2.13
2022-08-27T22:20:53.480Z,2.45
2022-08-27T22:23:22.810Z,2.22
2022-08-27T22:25:51.322Z,1.80
2022-08-27T22:28:20.715Z,2.08
2022-08-27T22:30:49.314Z,2.35
2022-08-27T22:33:19.042Z,1.95
2022-08-27T22:35:48.969Z,2.30
2022-08-27T22:38:17.487Z,1.85
2022-08-27T22:40:46.144Z,2.25
2022-08-27T22:43:15.888Z,2.25
2022-08-27T22:45:44.349Z,2.58
2022-08-27T22:48:13.631Z,2.55
2022-08-27T22:50:42.374Z,2.15
2022-08-27T22:53:13.571Z,2.47
2022-08-27T22:55:43.221Z,1.90
2022-08-27T22:58:13.867Z,2.20
2022-08-27T23:00:43.159Z,2.15
2022-08-27T23:03:14.962Z,2.78
2022-08-27T23:05:43.872Z,2.53
2022-08-27T23:08:14.876Z,1.80
2022-08-27T23:10:45.002Z,2.53
2022-08-27T23:13:14.101Z,2.40
2022-08-27T23:15:43.554Z,2.05
2022-08-27T23:18:12.340Z,2.67
2022-08-27T23:20:41.635Z,2.10
2022-08-27T23:23:10.323Z,3.22
2022-08-27T23:25:58.056Z,2.25
2022-08-27T23:28:26.437Z,2.33
2022-08-27T23:30:55.203Z,2.03
2022-08-27T23:33:23.749Z,2.50
2022-08-27T23:35:52.204Z,2.17
2022-08-27T23:38:22.324Z,2.88
2022-08-27T23:40:53.457Z,2.80
2022-08-27T23:43:23.137Z,2.42
2022-08-27T23:45:52.023Z,2.55
2022-08-27T23:48:21.242Z,2.95
2022-08-27T23:50:49.698Z,2.38
2022-08-27T23:53:18.556Z,3.03
2022-08-27T23:55:47.062Z,2.28
2022-08-27T23:58:17.057Z,2.38
